TAF Text Data
IDs:
Format:
Raw Decoded Include METAR

Data at: 1345 UTC 26 Feb 2021

KPIE 261120Z 2612/2712 VRB04KT P6SM SCT060
  FM261400 12007KT P6SM FEW040
  FM262000 24007KT P6SM SKC
  FM270100 VRB03KT P6SM FEW030